Weather History for North Bend, OR

Change the Weather History Date:

Thursday, September 25, 2014

  Actual Average Record
Temperature  
Mean Temperature 63 °F 56 °F  
Max Temperature 72 °F 64 °F 89 °F (1985)
Min Temperature 54 °F 49 °F 30 °F (1908)
Degree Days  
Heating Degree Days 2 9  
Month to date heating degree days 83 182  
Since 1 July heating degree days 348 561  
Cooling Degree Days 0 0  
Month to date cooling degree days 10 0  
Year to date cooling degree days 22 1  
Growing Degree Days 11 (Base 50)    
Moisture  
Dew Point 57 °F    
Average Humidity 88    
Maximum Humidity 100    
Minimum Humidity 66    
Precipitation  
Precipitation 0.00 in 0.07 in 0.93 in (1971)
Month to date precipitation 1.61 1.19  
Year to date precipitation 24.06 38.43  
Sea Level Pressure  
Sea Level Pressure 29.89 in    
Wind  
Wind Speed 8 mph (South)    
Max Wind Speed 17 mph    
Max Gust Speed 25 mph    
Visibility 9 miles    
Events      
T = Trace of Precipitation, MM = Missing Value Source: NWS Daily Summary

Daily Weather History Graph

Daily Weather History Graph

Search for Another Location

Airport:

Trip Planner

Search our weather history database for the weather conditions in past years. The results will help you decide how hot, cold, wet, or windy it might be!

Date:

Astronomy

Sep. 25, 2014 Rise Set
Actual Time 7:07 AM PDT 7:08 PM PDT
Civil Twilight 6:39 AM PDT 7:37 PM PDT
Nautical Twilight 6:05 AM PDT 8:10 PM PDT
Astronomical Twilight 5:31 AM PDT 8:44 PM PDT
Moon 8:34 AM PDT (9/25) 7:52 PM PDT (9/25)
Length of Visible Light 12h 57m
Length of Day
12h 00m
New Moon, 2% of the Moon is Illuminated
Sep 25
New Moon
Oct 1
First Quarter
Oct 8
Full
Oct 15
Last Quarter
Oct 23
New

Hourly Weather History & Observations

Time (PDT) Temp. Dew Point Humidity Pressure Visibility Wind Dir Wind Speed Gust Speed Precip Events Conditions
12:15 AM 57.2 °F 57.2 °F 100% 29.87 in 3.0 mi SSE 5.8 mph - N/A   Overcast
12:35 AM 57.2 °F 57.2 °F 100% 29.87 in 4.0 mi SSE 5.8 mph - N/A   Overcast
12:55 AM 57.2 °F 57.2 °F 100% 29.86 in 0.8 mi SSE 6.9 mph - N/A   Overcast
1:15 AM 55.4 °F 55.4 °F 100% 29.86 in 10.0 mi SSE 5.8 mph - N/A   Overcast
1:35 AM 55.4 °F 55.4 °F 100% 29.85 in 1.5 mi SSE 6.9 mph - N/A   Overcast
1:55 AM 55.4 °F 55.4 °F 100% 29.87 in 1.8 mi South 5.8 mph - N/A   Overcast
2:15 AM 55.4 °F 55.4 °F 100% 29.87 in 1.0 mi South 6.9 mph - N/A   Overcast
2:35 AM 55.4 °F 55.4 °F 100% 29.86 in 10.0 mi SSE 5.8 mph - N/A   Scattered Clouds
2:55 AM 55.4 °F 55.4 °F 100% 29.86 in 10.0 mi SSE 5.8 mph - N/A   Clear
3:15 AM 55.4 °F 55.4 °F 100% 29.85 in 10.0 mi SSE 4.6 mph - N/A   Clear
3:35 AM 55.4 °F 55.4 °F 100% 29.85 in 10.0 mi SSE 5.8 mph - N/A   Clear
3:55 AM 55.4 °F 55.4 °F 100% 29.86 in 10.0 mi SSE 5.8 mph - N/A   Clear
4:15 AM 55.4 °F 55.4 °F 100% 29.84 in 10.0 mi SSE 6.9 mph - N/A   Clear
4:35 AM 55.4 °F 55.4 °F 100% 29.85 in 10.0 mi SSE 6.9 mph - N/A   Clear
4:55 AM 55.4 °F 55.4 °F 100% 29.85 in 10.0 mi SSE 4.6 mph - N/A   Clear
5:15 AM 53.6 °F 53.6 °F 100% 29.85 in 10.0 mi SSE 4.6 mph - N/A   Clear
5:35 AM 55.4 °F 55.4 °F 100% 29.84 in 10.0 mi South 6.9 mph - N/A   Clear
5:55 AM 53.6 °F 53.6 °F 100% 29.85 in 10.0 mi South 6.9 mph - N/A   Clear
6:15 AM 53.6 °F 53.6 °F 100% 29.85 in 10.0 mi SSE 6.9 mph - N/A   Clear
6:35 AM 53.6 °F 53.6 °F 100% 29.85 in 10.0 mi South 5.8 mph - N/A   Clear
6:55 AM 55.4 °F 55.4 °F 100% 29.85 in 10.0 mi SSE 5.8 mph - N/A   Mostly Cloudy
7:15 AM 55.4 °F 55.4 °F 100% 29.85 in 10.0 mi SSE 5.8 mph - N/A   Overcast
7:35 AM 55.4 °F 55.4 °F 100% 29.85 in 10.0 mi South 8.1 mph - N/A   Overcast
7:55 AM 55.4 °F 55.4 °F 100% 29.86 in 10.0 mi SSE 6.9 mph - N/A   Overcast
8:15 AM 55.4 °F 55.4 °F 100% 29.86 in 10.0 mi South 8.1 mph - N/A   Overcast
8:35 AM 55.4 °F 55.4 °F 100% 29.87 in 10.0 mi South 5.8 mph - N/A   Overcast
8:55 AM 57.2 °F 55.4 °F 94% 29.87 in 10.0 mi SSE 6.9 mph - N/A   Overcast
9:15 AM 57.2 °F 55.4 °F 94% 29.88 in 10.0 mi South 5.8 mph - N/A   Overcast
9:35 AM 60.8 °F 57.2 °F 88% 29.88 in 10.0 mi South 5.8 mph - N/A   Mostly Cloudy
9:55 AM 62.6 °F 57.2 °F 82% 29.88 in 10.0 mi SSE 5.8 mph - N/A   Overcast
10:15 AM 62.6 °F 57.2 °F 82% 29.89 in 8.0 mi South 5.8 mph - N/A   Mostly Cloudy
10:35 AM 62.6 °F 57.2 °F 82% 29.89 in 10.0 mi SSE 5.8 mph - N/A   Overcast
10:55 AM 62.6 °F 57.2 °F 82% 29.89 in 10.0 mi South 6.9 mph - N/A   Overcast
11:15 AM 62.6 °F 59.0 °F 88% 29.89 in 10.0 mi SSE 5.8 mph - N/A   Overcast
11:35 AM 62.6 °F 59.0 °F 88% 29.89 in 10.0 mi South 8.1 mph - N/A   Overcast
11:55 AM 64.4 °F 59.0 °F 83% 29.89 in 10.0 mi SSE 5.8 mph - N/A   Mostly Cloudy
12:15 PM 66.2 °F 60.8 °F 83% 29.89 in 10.0 mi SSE 6.9 mph - N/A   Mostly Cloudy
12:35 PM 66.2 °F 60.8 °F 83% 29.89 in 10.0 mi SW 6.9 mph - N/A   Overcast
12:55 PM 69.8 °F 59.0 °F 68% 29.90 in 10.0 mi South 5.8 mph 19.6 mph N/A   Overcast
1:15 PM 66.2 °F 59.0 °F 78% 29.89 in 10.0 mi SSW 11.5 mph 20.7 mph N/A   Overcast
1:35 PM 69.8 °F 57.2 °F 64% 29.88 in 10.0 mi SW 16.1 mph 23.0 mph N/A   Overcast
1:55 PM 69.8 °F 57.2 °F 64% 29.88 in 10.0 mi SSW 17.3 mph 24.2 mph N/A   Mostly Cloudy
2:15 PM 69.8 °F 57.2 °F 64% 29.88 in 10.0 mi SW 18.4 mph 28.8 mph N/A   Mostly Cloudy
2:55 PM 69.8 °F 57.2 °F 64% 29.88 in 10.0 mi SW 17.3 mph 25.3 mph N/A   Scattered Clouds
3:15 PM 68.0 °F 57.2 °F 68% 29.89 in 10.0 mi SW 13.8 mph 23.0 mph N/A   Mostly Cloudy
3:35 PM 69.8 °F 57.2 °F 64% 29.88 in 10.0 mi SW 15.0 mph 23.0 mph N/A   Scattered Clouds
3:55 PM 69.8 °F 57.2 °F 64% 29.89 in 10.0 mi SSW 9.2 mph 25.3 mph N/A   Scattered Clouds
4:15 PM 69.8 °F 57.2 °F 64% 29.89 in 10.0 mi SW 13.8 mph 24.2 mph N/A   Scattered Clouds
4:35 PM 68.0 °F 57.2 °F 68% 29.89 in 10.0 mi SSW 19.6 mph 31.1 mph N/A   Scattered Clouds
4:55 PM 68.0 °F 57.2 °F 68% 29.90 in 10.0 mi SW 16.1 mph 24.2 mph N/A   Partly Cloudy
5:15 PM 69.8 °F 57.2 °F 64% 29.90 in 10.0 mi SSW 13.8 mph 19.6 mph N/A   Scattered Clouds
5:35 PM 68.0 °F 55.4 °F 64% 29.91 in 10.0 mi SSW 10.4 mph 21.9 mph N/A   Scattered Clouds
5:55 PM 66.2 °F 55.4 °F 68% 29.91 in 10.0 mi SSW 16.1 mph 24.2 mph N/A   Scattered Clouds
6:15 PM 66.2 °F 57.2 °F 73% 29.91 in 10.0 mi SSW 11.5 mph - N/A   Partly Cloudy
6:35 PM 66.2 °F 57.2 °F 73% 29.92 in 10.0 mi SSW 8.1 mph - N/A   Partly Cloudy
6:55 PM 64.4 °F 57.2 °F 77% 29.92 in 10.0 mi SSW 11.5 mph - N/A   Partly Cloudy
7:15 PM 64.4 °F 57.2 °F 77% 29.93 in 10.0 mi South 5.8 mph - N/A   Partly Cloudy
7:35 PM 62.6 °F 59.0 °F 88% 29.93 in 10.0 mi SSW 11.5 mph - N/A   Partly Cloudy
7:55 PM 62.6 °F 59.0 °F 88% 29.93 in 10.0 mi South 8.1 mph - N/A   Partly Cloudy
8:15 PM 62.6 °F 59.0 °F 88% 29.94 in 10.0 mi South 6.9 mph - N/A   Partly Cloudy
8:35 PM 60.8 °F 59.0 °F 94% 29.95 in 10.0 mi South 5.8 mph - N/A   Partly Cloudy
8:55 PM 60.8 °F 59.0 °F 94% 29.95 in 10.0 mi South 4.6 mph - N/A   Partly Cloudy
9:15 PM 60.8 °F 57.2 °F 88% 29.95 in 10.0 mi South 5.8 mph - N/A   Partly Cloudy
9:35 PM 59.0 °F 57.2 °F 94% 29.95 in 10.0 mi SE 5.8 mph - N/A   Clear
9:55 PM 57.2 °F 57.2 °F 100% 29.95 in 10.0 mi SE 3.5 mph - N/A   Clear
10:15 PM 57.2 °F 57.2 °F 100% 29.95 in 10.0 mi SE 5.8 mph - N/A   Clear
10:35 PM 57.2 °F 57.2 °F 100% 29.96 in 10.0 mi SE 5.8 mph - N/A   Clear
10:55 PM 55.4 °F 55.4 °F 100% 29.96 in 10.0 mi SSE 5.8 mph - N/A   Clear
11:15 PM 55.4 °F 55.4 °F 100% 29.96 in 10.0 mi SSE 4.6 mph - N/A   Scattered Clouds
11:35 PM 55.4 °F 55.4 °F 100% 29.96 in 10.0 mi SSE 5.8 mph - N/A   Mostly Cloudy
11:55 PM 55.4 °F 55.4 °F 100% 29.97 in 10.0 mi SE 5.8 mph - N/A   Partly Cloudy